Time;durP1;ratioP1;P1;durP2;ratioP2;P2;SDS_P1;SDS_P2;PMS_P1;PMS_P2;Temp;Humidity;BMP_temperature;BMP_pressure;BME280_temperature;BME280_humidity;BME280_pressure;Samples;Min_cycle;Max_cycle;Signal;HPM_P1;HPM_P2
2022/09/22 00:01:11;;;;;;;9.80;4.72;;;7.40;73.50;;;;;;5069308;28;20021;-82
2022/09/22 00:03:43;;;;;;;7.82;4.47;;;7.40;73.40;;;;;;5070563;28;20035;-84
2022/09/22 00:06:12;;;;;;;8.40;5.13;;;7.50;73.40;;;;;;5069030;28;20020;-84
2022/09/22 00:08:41;;;;;;;6.88;4.25;;;7.40;73.40;;;;;;5065366;28;20020;-82
2022/09/22 00:11:23;;;;;;;7.25;4.50;;;7.40;73.60;;;;;;5059709;28;20028;-82
2022/09/22 00:13:59;;;;;;;7.00;4.18;;;7.40;73.50;;;;;;5028017;28;20036;-87
2022/09/22 00:16:42;;;;;;;6.28;4.10;;;7.40;73.30;;;;;;5078497;28;20031;-83
2022/09/22 00:19:12;;;;;;;6.75;4.00;;;7.40;73.90;;;;;;5061207;28;20494;-85
2022/09/22 00:21:37;;;;;;;6.13;3.70;;;7.40;73.20;;;;;;5043810;28;20051;-89
2022/09/22 00:24:06;;;;;;;7.25;3.92;;;7.40;73.40;;;;;;5061299;28;20116;-79
2022/09/22 00:26:33;;;;;;;7.15;3.50;;;7.30;73.70;;;;;;5060946;28;20119;-93
2022/09/22 00:29:00;;;;;;;6.60;3.83;;;7.20;73.80;;;;;;5060302;28;20030;-90
2022/09/22 00:31:28;;;;;;;6.45;3.97;;;7.20;74.20;;;;;;5065807;28;20064;-79
2022/09/22 00:33:55;;;;;;;6.35;4.13;;;7.20;73.90;;;;;;5066944;28;20103;-84
2022/09/22 00:36:24;;;;;;;6.38;3.95;;;7.20;74.00;;;;;;5065054;28;20119;-83
2022/09/22 00:38:52;;;;;;;5.82;3.55;;;7.20;74.10;;;;;;5045696;28;20025;-83
2022/09/22 00:41:24;;;;;;;7.18;3.67;;;7.10;74.00;;;;;;5046136;28;20040;-88
2022/09/22 00:44:25;;;;;;;8.25;4.13;;;7.00;74.30;;;;;;5044388;28;20052;-85
2022/09/22 00:47:13;;;;;;;6.93;3.67;;;7.10;74.60;;;;;;5051307;28;20032;-83
2022/09/22 00:50:00;;;;;;;6.35;3.83;;;7.00;74.60;;;;;;5060973;28;20025;-91
2022/09/22 00:52:38;;;;;;;5.72;3.72;;;6.90;74.70;;;;;;5060838;28;20020;-80
2022/09/22 00:55:09;;;;;;;6.57;3.80;;;7.00;74.80;;;;;;5059447;28;20029;-86
2022/09/22 00:57:36;;;;;;;5.97;3.63;;;6.90;74.90;;;;;;5058335;28;20515;-88
2022/09/22 01:00:05;;;;;;;5.90;3.30;;;6.90;74.90;;;;;;5058439;28;20036;-83
2022/09/22 01:02:31;;;;;;;4.85;3.20;;;6.90;74.90;;;;;;5058144;28;20051;-88
2022/09/22 01:04:57;;;;;;;5.18;3.30;;;6.90;75.00;;;;;;5040816;28;20029;-82
2022/09/22 01:07:27;;;;;;;5.38;3.25;;;6.80;74.90;;;;;;5041395;28;20028;-82
2022/09/22 01:09:54;;;;;;;5.40;3.40;;;6.90;75.10;;;;;;5058831;28;20024;-87
2022/09/22 01:12:22;;;;;;;4.20;3.05;;;6.80;75.00;;;;;;5060384;28;20033;-88
2022/09/22 01:14:50;;;;;;;4.85;3.47;;;6.80;75.00;;;;;;5043575;28;20036;-88
2022/09/22 01:17:31;;;;;;;7.85;3.90;;;6.80;74.90;;;;;;5060210;28;20031;-80
2022/09/22 01:20:41;;;;;;;3.67;2.78;;;6.80;75.40;;;;;;5078698;28;20028;-77
2022/09/22 01:23:43;;;;;;;7.60;3.17;;;6.80;75.50;;;;;;5061030;28;20396;-76
2022/09/22 01:26:43;;;;;;;10.65;3.33;;;6.80;75.70;;;;;;5037410;28;20032;-88
2022/09/22 01:29:52;;;;;;;4.35;3.30;;;6.70;75.90;;;;;;5058999;28;20032;-77
2022/09/22 01:32:43;;;;;;;5.95;3.65;;;6.80;75.70;;;;;;5069468;28;20040;-78
2022/09/22 01:35:34;;;;;;;5.97;3.65;;;6.80;75.50;;;;;;5061412;28;20495;-83
2022/09/22 01:38:16;;;;;;;5.43;3.75;;;6.80;75.10;;;;;;5081462;28;20024;-79
2022/09/22 01:40:56;;;;;;;7.97;3.67;;;6.70;75.60;;;;;;5059738;28;20060;-77
2022/09/22 01:43:27;;;;;;;7.32;3.00;;;6.70;75.70;;;;;;5057905;28;20032;-90
2022/09/22 01:45:53;;;;;;;5.50;3.65;;;6.80;75.70;;;;;;5056583;28;20021;-78
2022/09/22 01:48:25;;;;;;;5.95;3.08;;;6.80;75.50;;;;;;5056369;28;20028;-78
2022/09/22 01:51:06;;;;;;;8.07;3.13;;;6.70;75.70;;;;;;5058826;28;20371;-78
2022/09/22 01:53:41;;;;;;;4.35;2.58;;;6.80;75.80;;;;;;5064178;28;20024;-77
2022/09/22 01:56:11;;;;;;;3.33;2.73;;;6.90;75.70;;;;;;5062868;28;20044;-77
2022/09/22 01:58:52;;;;;;;4.45;3.03;;;6.90;75.40;;;;;;5058228;28;20030;-78
2022/09/22 02:01:24;;;;;;;4.03;2.88;;;6.90;75.30;;;;;;5043886;28;20489;-84
2022/09/22 02:04:18;;;;;;;3.97;2.67;;;6.90;75.00;;;;;;5055930;28;20067;-77
2022/09/22 02:06:56;;;;;;;6.07;2.80;;;6.90;75.10;;;;;;5055883;28;20561;-77
2022/09/22 02:09:25;;;;;;;5.97;3.03;;;6.80;74.80;;;;;;5039144;28;20148;-77
2022/09/22 02:11:51;;;;;;;6.82;3.70;;;6.80;74.90;;;;;;5055837;28;20032;-77
2022/09/22 02:14:17;;;;;;;5.05;3.08;;;6.70;74.70;;;;;;5055550;28;20024;-77
2022/09/22 02:16:43;;;;;;;4.82;3.28;;;6.70;74.90;;;;;;5039261;28;20032;-85
2022/09/22 02:19:26;;;;;;;3.65;3.05;;;6.50;75.30;;;;;;5057853;28;20123;-78
2022/09/22 02:21:53;;;;;;;5.10;3.05;;;6.50;75.50;;;;;;5055327;28;20059;-76
2022/09/22 02:24:36;;;;;;;6.00;2.92;;;6.50;75.70;;;;;;5073131;28;20036;-77
2022/09/22 02:27:08;;;;;;;3.42;2.83;;;6.60;76.40;;;;;;5055652;28;20024;-76
2022/09/22 02:29:38;;;;;;;6.78;3.15;;;6.60;75.70;;;;;;5055650;28;20495;-76
2022/09/22 02:32:10;;;;;;;5.70;2.95;;;6.60;76.00;;;;;;5055210;28;20052;-76
2022/09/22 02:34:36;;;;;;;4.72;3.22;;;6.60;76.00;;;;;;5055477;28;20093;-77
2022/09/22 02:37:18;;;;;;;3.90;2.97;;;6.60;75.80;;;;;;5082426;28;20473;-77
2022/09/22 02:40:23;;;;;;;3.38;2.45;;;6.60;75.90;;;;;;5056811;28;20025;-88
2022/09/22 02:42:53;;;;;;;5.20;3.22;;;6.60;75.90;;;;;;5061301;28;20057;-88
2022/09/22 02:45:48;;;;;;;6.82;3.15;;;6.60;75.70;;;;;;5057135;28;20044;-85
2022/09/22 02:48:29;;;;;;;5.68;3.20;;;6.60;75.80;;;;;;5057992;28;20024;-91
2022/09/22 02:50:56;;;;;;;8.45;3.38;;;6.60;75.60;;;;;;5058550;28;20047;-86
2022/09/22 02:53:21;;;;;;;4.45;2.97;;;6.60;75.60;;;;;;5057682;28;20054;-84
2022/09/22 02:55:48;;;;;;;3.88;2.95;;;6.40;76.10;;;;;;5058228;28;20032;-79
2022/09/22 02:58:15;;;;;;;4.57;3.00;;;6.30;76.30;;;;;;5057662;28;20021;-78
2022/09/22 03:00:44;;;;;;;6.03;2.80;;;6.30;76.40;;;;;;5056049;28;20021;-86
2022/09/22 03:03:10;;;;;;;5.78;2.92;;;6.30;76.30;;;;;;5057263;28;20032;-79
2022/09/22 03:05:37;;;;;;;4.78;3.05;;;6.30;76.30;;;;;;5056581;28;20116;-81
2022/09/22 03:08:03;;;;;;;5.70;2.50;;;6.30;75.80;;;;;;5058598;28;20032;-78
2022/09/22 03:10:32;;;;;;;3.30;2.53;;;6.30;75.60;;;;;;5049047;28;20038;-83
2022/09/22 03:12:57;;;;;;;4.72;2.72;;;6.30;75.40;;;;;;5060149;28;20024;-79
2022/09/22 03:15:23;;;;;;;4.20;2.53;;;6.30;75.40;;;;;;5056294;28;20062;-77
2022/09/22 03:17:50;;;;;;;3.20;2.28;;;6.30;76.20;;;;;;5055873;28;20283;-81
2022/09/22 03:20:16;;;;;;;4.40;2.63;;;6.30;75.20;;;;;;5056352;28;20021;-84
2022/09/22 03:22:42;;;;;;;3.88;2.47;;;6.20;75.20;;;;;;5056331;28;20481;-90
2022/09/22 03:25:09;;;;;;;5.60;2.63;;;6.20;75.10;;;;;;5059396;28;20036;-76
2022/09/22 03:27:37;;;;;;;3.90;2.75;;;6.20;75.20;;;;;;5075104;28;20051;-77
2022/09/22 03:30:08;;;;;;;3.05;2.20;;;6.20;75.20;;;;;;5064014;28;20027;-79
2022/09/22 03:32:34;;;;;;;4.15;2.78;;;6.20;75.00;;;;;;5060710;28;20043;-78
2022/09/22 03:35:01;;;;;;;3.70;2.67;;;6.10;74.80;;;;;;5063540;28;20029;-78
2022/09/22 03:37:26;;;;;;;4.68;2.53;;;6.10;74.90;;;;;;5057980;28;20024;-78
2022/09/22 03:39:52;;;;;;;5.18;2.70;;;6.10;74.90;;;;;;5060695;28;20133;-77
2022/09/22 03:42:18;;;;;;;4.80;2.40;;;6.00;75.00;;;;;;5058795;28;20554;-78
2022/09/22 03:44:44;;;;;;;3.10;2.72;;;5.90;75.20;;;;;;5054855;28;20045;-81
2022/09/22 03:47:09;;;;;;;3.78;2.38;;;5.90;75.50;;;;;;5041255;28;20128;-80
2022/09/22 03:49:35;;;;;;;3.90;2.92;;;5.90;75.50;;;;;;5055761;28;20027;-90
2022/09/22 03:52:01;;;;;;;5.80;2.88;;;5.80;75.60;;;;;;5054949;28;20353;-79
2022/09/22 03:54:26;;;;;;;7.90;4.40;;;5.80;76.50;;;;;;5055464;28;20032;-87
2022/09/22 03:56:52;;;;;;;12.18;6.90;;;5.80;76.00;;;;;;5076781;28;20024;-77
2022/09/22 03:59:18;;;;;;;11.85;7.50;;;5.80;76.00;;;;;;5059237;28;20085;-84
2022/09/22 04:01:45;;;;;;;11.93;7.53;;;5.70;75.90;;;;;;5059431;28;20180;-81
2022/09/22 04:04:10;;;;;;;11.52;7.28;;;5.70;75.70;;;;;;5059439;28;20165;-88
2022/09/22 04:06:37;;;;;;;15.20;8.00;;;5.70;75.90;;;;;;5058858;28;20115;-91
2022/09/22 04:09:04;;;;;;;16.52;8.60;;;5.60;75.80;;;;;;5060203;28;20050;-89
2022/09/22 04:11:30;;;;;;;16.80;10.30;;;5.70;76.00;;;;;;5042479;28;20105;-79
2022/09/22 04:13:56;;;;;;;14.90;10.00;;;5.70;76.10;;;;;;5039291;28;20579;-78
2022/09/22 04:16:22;;;;;;;14.90;9.82;;;5.70;76.00;;;;;;5058427;28;20032;-79
2022/09/22 04:18:48;;;;;;;17.83;11.38;;;5.70;76.00;;;;;;5041693;28;20116;-78
2022/09/22 04:21:18;;;;;;;18.95;12.20;;;5.70;75.90;;;;;;5040930;28;20373;-78
2022/09/22 04:23:43;;;;;;;18.58;12.00;;;5.70;75.80;;;;;;5057573;28;20492;-78
2022/09/22 04:26:09;;;;;;;15.85;10.98;;;5.70;75.60;;;;;;5058183;28;20044;-80
2022/09/22 04:28:35;;;;;;;17.85;12.02;;;5.70;75.40;;;;;;5040241;28;20087;-78
2022/09/22 04:31:01;;;;;;;15.95;10.50;;;5.70;75.40;;;;;;5057572;28;20027;-78
2022/09/22 04:33:27;;;;;;;12.48;8.00;;;5.70;75.40;;;;;;5057502;28;20380;-80
2022/09/22 04:35:55;;;;;;;9.60;6.78;;;5.70;75.30;;;;;;5057625;28;20456;-78
2022/09/22 04:38:22;;;;;;;9.80;6.50;;;5.60;75.00;;;;;;5074768;28;20488;-78
2022/09/22 04:40:51;;;;;;;8.73;5.68;;;5.60;75.20;;;;;;5057413;28;20392;-77
2022/09/22 04:43:17;;;;;;;8.43;5.15;;;5.60;75.40;;;;;;5057594;28;20106;-78
2022/09/22 04:45:44;;;;;;;10.82;5.63;;;5.50;76.20;;;;;;5057093;28;20401;-78
2022/09/22 04:48:14;;;;;;;7.82;4.65;;;5.60;75.50;;;;;;5074990;28;20059;-77
2022/09/22 04:50:40;;;;;;;6.50;4.03;;;5.60;75.30;;;;;;5056769;28;20079;-77
2022/09/22 04:53:06;;;;;;;6.93;4.50;;;5.60;75.00;;;;;;5057337;28;20020;-78
2022/09/22 04:55:34;;;;;;;7.47;4.40;;;5.50;74.90;;;;;;5057032;28;20119;-77
2022/09/22 04:58:00;;;;;;;6.20;4.15;;;5.50;74.90;;;;;;5056954;28;20054;-77
2022/09/22 05:00:27;;;;;;;6.85;4.20;;;5.50;74.80;;;;;;5057089;28;20494;-77
2022/09/22 05:02:53;;;;;;;9.63;4.82;;;5.50;74.70;;;;;;5057003;28;20033;-79
2022/09/22 05:05:22;;;;;;;7.40;4.50;;;5.40;75.60;;;;;;5057115;28;20495;-78
2022/09/22 05:07:53;;;;;;;7.63;5.15;;;5.40;74.80;;;;;;5056727;28;20380;-77
2022/09/22 05:10:23;;;;;;;9.23;4.75;;;5.40;74.90;;;;;;5056503;28;20032;-77
2022/09/22 05:12:51;;;;;;;7.00;5.07;;;5.40;74.90;;;;;;5056747;28;20028;-78
2022/09/22 05:15:17;;;;;;;6.72;4.07;;;5.30;74.90;;;;;;5056882;28;20570;-77
2022/09/22 05:17:48;;;;;;;6.35;3.75;;;5.30;74.60;;;;;;5075838;28;20109;-76
2022/09/22 05:20:14;;;;;;;4.47;3.25;;;5.30;74.60;;;;;;5056658;28;20050;-79
2022/09/22 05:22:40;;;;;;;5.63;3.33;;;5.30;74.40;;;;;;5057659;28;20039;-77
2022/09/22 05:25:09;;;;;;;7.57;3.95;;;5.30;74.40;;;;;;5039577;28;20123;-77
2022/09/22 05:27:36;;;;;;;9.40;3.80;;;5.20;74.70;;;;;;5056463;28;20056;-77
2022/09/22 05:30:04;;;;;;;10.75;4.25;;;5.20;74.70;;;;;;5039820;28;20035;-83
2022/09/22 05:32:31;;;;;;;5.93;4.03;;;5.20;74.80;;;;;;5039166;28;20045;-78
2022/09/22 05:34:57;;;;;;;7.75;2.90;;;5.10;74.80;;;;;;5056315;28;20353;-78
2022/09/22 05:37:24;;;;;;;6.68;3.20;;;5.00;75.30;;;;;;5055854;28;20029;-77
2022/09/22 05:39:50;;;;;;;4.57;2.78;;;5.00;75.80;;;;;;5055972;28;20032;-78
2022/09/22 05:42:15;;;;;;;7.13;3.42;;;5.00;75.80;;;;;;5039159;28;20036;-77
2022/09/22 05:44:41;;;;;;;7.28;3.38;;;5.00;76.40;;;;;;5046222;28;20049;-77
2022/09/22 05:47:06;;;;;;;5.40;3.38;;;5.00;77.30;;;;;;5036243;28;20025;-78
2022/09/22 05:49:32;;;;;;;5.78;3.03;;;5.00;76.40;;;;;;5035754;28;20021;-77
2022/09/22 05:51:58;;;;;;;7.18;4.68;;;4.90;76.40;;;;;;5036687;28;20040;-77
2022/09/22 05:54:24;;;;;;;7.93;4.82;;;5.00;76.40;;;;;;5020162;28;20528;-80
2022/09/22 05:56:54;;;;;;;12.73;5.43;;;5.10;76.20;;;;;;5003216;28;20163;-77
2022/09/22 05:59:19;;;;;;;10.15;5.70;;;5.20;76.00;;;;;;5035897;28;20060;-77
2022/09/22 06:01:45;;;;;;;8.07;4.82;;;5.30;75.70;;;;;;5035463;28;20374;-77
2022/09/22 06:04:10;;;;;;;15.70;6.63;;;5.40;75.10;;;;;;5035535;28;20025;-77
2022/09/22 06:06:36;;;;;;;30.75;14.32;;;5.50;74.60;;;;;;5035410;28;20040;-78
2022/09/22 06:09:02;;;;;;;27.52;14.80;;;5.30;74.70;;;;;;5035480;28;20450;-77
2022/09/22 06:11:28;;;;;;;21.50;11.65;;;5.40;74.80;;;;;;5035763;28;20036;-78
2022/09/22 06:13:54;;;;;;;16.25;9.95;;;5.50;74.90;;;;;;5053787;28;20021;-77
2022/09/22 06:16:20;;;;;;;13.93;8.43;;;5.60;74.70;;;;;;5058441;28;20031;-77
2022/09/22 06:18:46;;;;;;;13.38;6.22;;;5.80;74.70;;;;;;5040025;28;20068;-77
2022/09/22 06:21:15;;;;;;;7.65;5.07;;;5.90;74.90;;;;;;5019843;28;20412;-77
2022/09/22 06:23:42;;;;;;;13.48;6.05;;;5.90;74.70;;;;;;5019384;28;20037;-78
2022/09/22 06:26:08;;;;;;;14.52;6.28;;;6.00;74.60;;;;;;5019445;28;20089;-80
2022/09/22 06:28:35;;;;;;;11.95;6.47;;;6.10;75.70;;;;;;5036232;28;20106;-77
2022/09/22 06:31:00;;;;;;;13.55;7.13;;;6.10;76.00;;;;;;5035815;28;20021;-78
2022/09/22 06:33:28;;;;;;;14.32;6.88;;;6.20;75.90;;;;;;5053468;28;20025;-78
2022/09/22 06:35:55;;;;;;;12.68;6.82;;;6.30;75.90;;;;;;5019080;28;20028;-77
2022/09/22 06:38:26;;;;;;;10.20;6.13;;;6.50;76.00;;;;;;5035165;28;20032;-77
2022/09/22 06:41:00;;;;;;;15.48;6.30;;;6.60;76.40;;;;;;5003462;28;20055;-77
2022/09/22 06:43:26;;;;;;;12.93;6.95;;;6.70;76.00;;;;;;5034903;28;20485;-78
2022/09/22 06:45:54;;;;;;;13.27;6.22;;;6.90;75.70;;;;;;5034955;28;20056;-77
2022/09/22 06:48:22;;;;;;;12.68;6.20;;;6.90;76.60;;;;;;5035052;28;20029;-77
2022/09/22 06:50:52;;;;;;;9.10;5.60;;;6.90;76.40;;;;;;5034840;28;20049;-76
2022/09/22 06:53:19;;;;;;;12.77;6.78;;;7.10;76.00;;;;;;5034788;28;20075;-79
2022/09/22 06:55:49;;;;;;;12.18;6.65;;;7.30;75.80;;;;;;5018669;28;20036;-79
2022/09/22 06:58:15;;;;;;;13.70;6.90;;;7.40;75.70;;;;;;5036277;28;20385;-78
2022/09/22 07:00:42;;;;;;;12.30;6.95;;;7.50;76.50;;;;;;5052936;28;20388;-77
2022/09/22 07:03:16;;;;;;;12.57;6.10;;;7.60;75.70;;;;;;5033899;28;20394;-77
2022/09/22 07:05:56;;;;;;;12.70;5.20;;;7.70;75.70;;;;;;5035037;28;20112;-79
2022/09/22 07:08:25;;;;;;;8.77;4.18;;;7.90;75.60;;;;;;5017653;28;20037;-78
2022/09/22 07:11:06;;;;;;;6.47;4.63;;;7.90;76.00;;;;;;5034893;28;20028;-79
2022/09/22 07:13:35;;;;;;;9.13;4.90;;;7.90;75.90;;;;;;5034110;28;20130;-77
2022/09/22 07:16:03;;;;;;;31.75;5.93;;;8.10;75.60;;;;;;5034700;28;20116;-74
2022/09/22 07:18:29;;;;;;;15.18;5.40;;;8.50;84.50;;;;;;5034437;28;20021;-73
2022/09/22 07:21:10;;;;;;;8.10;4.78;;;9.20;91.70;;;;;;5034821;28;20358;-74
2022/09/22 07:23:36;;;;;;;7.95;4.30;;;9.60;85.00;;;;;;5033911;28;20059;-72
2022/09/22 07:26:10;;;;;;;6.28;3.75;;;10.10;81.50;;;;;;5034543;28;20021;-73
2022/09/22 07:28:36;;;;;;;5.70;3.58;;;10.60;75.70;;;;;;5018451;28;20033;-73
2022/09/22 07:31:06;;;;;;;8.48;4.45;;;10.80;72.70;;;;;;5038213;28;20024;-73
2022/09/22 07:33:33;;;;;;;7.38;3.83;;;10.90;69.30;;;;;;5038430;28;20033;-72
2022/09/22 07:36:03;;;;;;;5.80;3.35;;;11.20;70.50;;;;;;5038241;28;20025;-72
2022/09/22 07:38:35;;;;;;;4.95;3.45;;;11.40;68.70;;;;;;5038621;28;20021;-76
2022/09/22 07:41:05;;;;;;;5.95;3.70;;;11.50;67.80;;;;;;5038353;28;20462;-73
2022/09/22 07:43:34;;;;;;;7.80;3.50;;;11.70;66.90;;;;;;5038615;28;20043;-72
2022/09/22 07:46:01;;;;;;;6.68;3.15;;;11.80;66.20;;;;;;5055044;28;20041;-73
2022/09/22 07:51:18;;;;;;;7.25;4.07;;;12.00;65.60;;;;;;5057160;28;20025;-80
2022/09/22 07:53:46;;;;;;;6.05;3.58;;;11.70;63.70;;;;;;5055046;28;20025;-82
2022/09/22 07:56:20;;;;;;;6.80;3.17;;;11.50;64.10;;;;;;5054328;28;20070;-75
2022/09/22 07:58:51;;;;;;;9.57;3.50;;;11.30;64.30;;;;;;5055081;28;20078;-75
2022/09/22 08:01:22;;;;;;;8.73;3.38;;;11.10;65.20;;;;;;5054965;28;20028;-78
2022/09/22 08:03:49;;;;;;;5.72;2.72;;;11.00;66.20;;;;;;5054341;28;20033;-74
2022/09/22 08:06:17;;;;;;;11.15;3.72;;;11.00;66.80;;;;;;5053935;28;20040;-75
2022/09/22 08:08:51;;;;;;;8.75;3.38;;;11.10;67.60;;;;;;5055349;28;20489;-74
2022/09/22 08:11:18;;;;;;;4.53;3.13;;;11.40;68.50;;;;;;5055593;28;20527;-74
2022/09/22 08:13:53;;;;;;;5.60;3.20;;;11.80;67.20;;;;;;5055373;28;20021;-75
2022/09/22 08:16:21;;;;;;;4.22;3.10;;;11.80;63.10;;;;;;5055549;28;20017;-74
2022/09/22 08:18:54;;;;;;;4.70;3.05;;;11.70;63.90;;;;;;5055322;28;20029;-74
2022/09/22 08:21:21;;;;;;;3.90;2.90;;;11.70;64.20;;;;;;5055075;28;20021;-74
2022/09/22 08:23:51;;;;;;;3.83;2.58;;;11.60;64.10;;;;;;5053604;28;20024;-74
2022/09/22 08:26:21;;;;;;;6.57;2.80;;;11.70;63.80;;;;;;5055189;28;20049;-74
2022/09/22 08:28:52;;;;;;;5.72;2.92;;;11.80;63.30;;;;;;5055216;28;20074;-74
2022/09/22 08:31:19;;;;;;;4.60;2.70;;;11.80;62.80;;;;;;5055450;28;20616;-74
2022/09/22 08:33:45;;;;;;;6.30;2.80;;;11.70;61.70;;;;;;5056677;28;20013;-76
2022/09/22 08:36:11;;;;;;;5.88;2.55;;;11.90;62.20;;;;;;5056775;28;20025;-75
2022/09/22 08:38:37;;;;;;;4.90;2.15;;;12.00;62.50;;;;;;5054915;28;20428;-74
2022/09/22 08:41:17;;;;;;;5.45;1.05;;;12.10;61.10;;;;;;5055145;28;20031;-75
2022/09/22 08:43:54;;;;;;;3.97;0.73;;;12.20;55.30;;;;;;5054493;28;20033;-74
2022/09/22 08:46:32;;;;;;;2.28;0.75;;;12.50;48.10;;;;;;5037392;28;20125;-73
2022/09/22 08:52:15;;;;;;;0.98;0.57;;;12.70;45.80;;;;;;5054962;28;20036;-75
2022/09/22 08:54:41;;;;;;;3.72;0.55;;;13.00;47.50;;;;;;5036951;28;20040;-74
2022/09/22 08:57:36;;;;;;;0.93;0.45;;;13.30;49.20;;;;;;5054755;28;20024;-74
2022/09/22 09:00:14;;;;;;;1.42;0.60;;;13.60;47.80;;;;;;5008098;28;20040;-74
2022/09/22 09:03:04;;;;;;;0.60;0.55;;;13.90;47.00;;;;;;5054691;28;20055;-74
2022/09/22 09:05:30;;;;;;;0.90;0.55;;;14.10;45.30;;;;;;5036724;28;20021;-74
2022/09/22 09:08:23;;;;;;;4.68;3.00;;;14.30;44.10;;;;;;5056346;28;20032;-75
2022/09/22 09:11:06;;;;;;;1.67;0.95;;;14.50;45.80;;;;;;5054486;28;20100;-74
2022/09/22 09:14:03;;;;;;;0.85;0.60;;;14.70;44.50;;;;;;5054650;28;20595;-74
2022/09/22 09:16:39;;;;;;;2.47;0.60;;;14.90;42.30;;;;;;5054534;28;20031;-74
2022/09/22 09:19:30;;;;;;;0.45;0.35;;;15.10;43.50;;;;;;5054186;28;20025;-73
2022/09/22 09:22:01;;;;;;;0.77;0.55;;;15.30;42.10;;;;;;5054401;28;20052;-73
2022/09/22 09:24:35;;;;;;;2.90;0.60;;;15.50;41.60;;;;;;5054231;28;20028;-73
2022/09/22 09:27:07;;;;;;;0.40;0.40;;;15.60;41.80;;;;;;5053652;28;20021;-73
2022/09/22 09:29:40;;;;;;;0.30;0.30;;;15.70;39.50;;;;;;5054086;28;20025;-74
2022/09/22 09:32:13;;;;;;;1.95;1.38;;;15.80;40.90;;;;;;5053954;28;20550;-73
2022/09/22 09:34:40;;;;;;;2.15;0.55;;;15.90;39.50;;;;;;5055150;28;20029;-73
2022/09/22 09:37:14;;;;;;;7.40;1.00;;;16.00;39.00;;;;;;5055114;28;20021;-76
2022/09/22 09:39:42;;;;;;;1.55;0.90;;;16.10;39.50;;;;;;5056031;28;20029;-77
2022/09/22 09:42:26;;;;;;;1.33;0.80;;;16.20;39.30;;;;;;5051383;28;20500;-75
2022/09/22 09:44:53;;;;;;;1.63;0.98;;;16.30;38.20;;;;;;5042949;28;20169;-76
2022/09/22 09:47:35;;;;;;;0.90;0.45;;;16.50;38.00;;;;;;5072566;28;20112;-75
2022/09/22 09:50:02;;;;;;;1.10;0.30;;;16.60;37.10;;;;;;5071696;28;20021;-74
2022/09/22 09:52:29;;;;;;;1.67;0.63;;;16.70;36.90;;;;;;5072312;28;20128;-75
2022/09/22 09:54:54;;;;;;;1.60;0.40;;;16.80;36.90;;;;;;5072338;28;20024;-74
2022/09/22 09:57:21;;;;;;;1.17;0.43;;;16.80;37.60;;;;;;5054614;28;20132;-75
2022/09/22 10:03:12;;;;;;;1.35;0.60;;;17.20;36.50;;;;;;5072733;28;20530;-74
2022/09/22 10:05:38;;;;;;;1.23;0.60;;;17.20;34.60;;;;;;5072555;28;20062;-75
2022/09/22 10:08:14;;;;;;;0.95;0.40;;;17.20;33.20;;;;;;5072029;28;20031;-78
2022/09/22 10:10:40;;;;;;;0.75;0.50;;;17.00;33.60;;;;;;5072346;28;20034;-86
2022/09/22 10:13:05;;;;;;;0.75;0.40;;;17.00;33.30;;;;;;5072422;28;20016;-80
2022/09/22 10:15:36;;;;;;;0.80;0.40;;;17.10;32.80;;;;;;5076558;28;20020;-74
2022/09/22 10:18:22;;;;;;;1.27;0.50;;;17.20;33.20;;;;;;5070227;28;20017;-74
2022/09/22 10:21:14;;;;;;;2.60;0.40;;;17.20;33.80;;;;;;5070901;28;20423;-80
2022/09/22 10:23:41;;;;;;;0.80;0.47;;;17.50;34.30;;;;;;5074066;28;20058;-75
2022/09/22 10:26:26;;;;;;;0.68;0.43;;;17.50;33.00;;;;;;5057551;28;20047;-82
2022/09/22 10:29:18;;;;;;;1.35;0.40;;;17.80;34.50;;;;;;5075939;28;20035;-79
2022/09/22 10:32:12;;;;;;;0.20;0.20;;;17.90;31.90;;;;;;5073656;28;20029;-78
2022/09/22 10:34:45;;;;;;;0.60;0.30;;;18.00;30.10;;;;;;5051875;28;20350;-74
2022/09/22 10:37:14;;;;;;;1.35;0.47;;;18.00;29.20;;;;;;5072924;28;20366;-73
2022/09/22 10:39:42;;;;;;;0.70;0.30;;;18.00;30.00;;;;;;5072872;28;20020;-73
2022/09/22 10:42:24;;;;;;;0.77;0.40;;;18.00;30.00;;;;;;5072714;28;20103;-74
2022/09/22 10:44:51;;;;;;;0.63;0.47;;;18.10;30.20;;;;;;5054634;28;20050;-73
2022/09/22 10:47:32;;;;;;;0.80;0.32;;;18.20;29.00;;;;;;5073277;28;20103;-75
2022/09/22 10:50:19;;;;;;;1.98;0.32;;;18.30;29.10;;;;;;5075169;28;20303;-73
2022/09/22 10:52:58;;;;;;;0.75;0.40;;;18.30;29.00;;;;;;5073432;28;20043;-74
2022/09/22 10:55:47;;;;;;;0.98;0.40;;;18.50;30.40;;;;;;5072831;28;20071;-74
2022/09/22 10:58:26;;;;;;;1.33;0.60;;;18.60;29.90;;;;;;5071785;28;20035;-74
2022/09/22 11:01:02;;;;;;;0.60;0.52;;;18.70;28.40;;;;;;5072572;28;20020;-74
2022/09/22 11:04:14;;;;;;;1.58;0.45;;;18.60;26.80;;;;;;5054636;28;20036;-74
2022/09/22 11:13:05;;;;;;;0.98;0.30;;;18.70;27.00;;;;;;5072649;28;20031;-74
2022/09/22 11:15:43;;;;;;;0.93;0.45;;;18.90;25.60;;;;;;5071892;28;20107;-74
2022/09/22 11:18:23;;;;;;;2.40;0.40;;;19.20;26.40;;;;;;5069900;28;20586;-74
2022/09/22 11:21:10;;;;;;;0.35;0.30;;;19.30;26.00;;;;;;5070376;28;20028;-74
2022/09/22 11:24:05;;;;;;;1.38;0.40;;;19.20;26.50;;;;;;5072349;28;20071;-74
2022/09/22 11:27:09;;;;;;;0.60;0.30;;;19.30;26.80;;;;;;5072552;28;20033;-74
2022/09/22 11:30:04;;;;;;;0.40;0.40;;;19.40;26.40;;;;;;5010756;28;20434;-75
2022/09/22 11:32:54;;;;;;;0.75;0.45;;;19.30;26.90;;;;;;5053802;28;20043;-74
2022/09/22 11:35:28;;;;;;;4.50;0.32;;;19.20;27.70;;;;;;5072287;28;20024;-75
2022/09/22 11:38:21;;;;;;;0.50;0.40;;;19.20;27.50;;;;;;5071935;28;20025;-74
2022/09/22 11:41:05;;;;;;;1.50;0.52;;;19.50;27.00;;;;;;5072247;28;20507;-74
2022/09/22 11:43:51;;;;;;;1.02;0.40;;;19.40;25.60;;;;;;5072236;28;20485;-76
2022/09/22 11:46:47;;;;;;;1.42;0.50;;;19.60;26.60;;;;;;5072283;28;20032;-75
2022/09/22 11:49:32;;;;;;;0.65;0.50;;;19.60;25.20;;;;;;5072330;28;20021;-75
2022/09/22 11:52:16;;;;;;;1.08;0.50;;;19.60;25.50;;;;;;5072385;28;20476;-76
2022/09/22 11:55:01;;;;;;;2.67;0.75;;;19.80;25.80;;;;;;5072173;28;20021;-75
2022/09/22 11:57:32;;;;;;;0.75;0.50;;;20.00;25.30;;;;;;5072191;28;20037;-76
2022/09/22 11:59:58;;;;;;;0.95;0.50;;;20.10;24.50;;;;;;5072242;28;20025;-76
2022/09/22 12:02:38;;;;;;;1.27;0.57;;;20.00;25.20;;;;;;5072561;28;20041;-75
2022/09/22 12:05:21;;;;;;;0.45;0.40;;;20.00;24.60;;;;;;5072099;28;20131;-76
2022/09/22 12:08:10;;;;;;;2.40;0.55;;;20.00;25.00;;;;;;5071824;28;20021;-75
2022/09/22 12:10:43;;;;;;;0.75;0.40;;;19.90;24.90;;;;;;5062546;28;20393;-79
2022/09/22 12:13:15;;;;;;;0.98;0.60;;;20.10;24.60;;;;;;5072625;28;20029;-77
2022/09/22 12:15:48;;;;;;;0.68;0.50;;;20.30;25.30;;;;;;5072205;28;20025;-76
2022/09/22 12:18:31;;;;;;;0.50;0.50;;;20.60;23.70;;;;;;5074397;28;20029;-76
2022/09/22 12:21:23;;;;;;;2.00;0.65;;;20.90;24.00;;;;;;5076558;28;20069;-79
2022/09/22 12:23:50;;;;;;;0.63;0.43;;;20.80;23.10;;;;;;5076734;28;20028;-80
2022/09/22 12:26:30;;;;;;;0.85;0.47;;;20.80;22.50;;;;;;5078415;28;20013;-75
2022/09/22 12:28:57;;;;;;;1.08;0.45;;;21.20;22.30;;;;;;5077603;28;20024;-78
2022/09/22 12:31:35;;;;;;;0.95;0.40;;;21.30;21.30;;;;;;5079814;28;20031;-76
2022/09/22 12:34:03;;;;;;;3.92;0.32;;;21.40;21.80;;;;;;5075724;28;20035;-76
2022/09/22 12:36:38;;;;;;;2.33;0.70;;;21.20;21.80;;;;;;5057933;28;20389;-76
2022/09/22 12:39:24;;;;;;;0.77;0.50;;;21.30;22.40;;;;;;5075271;28;20020;-76
2022/09/22 12:42:14;;;;;;;1.13;0.22;;;21.20;21.60;;;;;;5075171;28;20020;-77
2022/09/22 12:44:52;;;;;;;1.13;0.70;;;21.20;21.60;;;;;;5074889;28;20052;-75
2022/09/22 12:47:34;;;;;;;0.82;0.50;;;21.20;22.10;;;;;;5075343;28;20048;-76
2022/09/22 12:50:06;;;;;;;2.17;0.75;;;21.50;21.40;;;;;;5075276;28;20025;-78
2022/09/22 12:52:40;;;;;;;1.10;0.55;;;21.60;21.40;;;;;;5075242;28;20399;-75
2022/09/22 12:55:28;;;;;;;1.65;0.45;;;21.90;21.40;;;;;;5074851;28;20036;-75
2022/09/22 12:57:58;;;;;;;0.68;0.35;;;21.80;21.40;;;;;;5074839;28;20029;-76
2022/09/22 13:00:33;;;;;;;2.53;0.40;;;21.70;21.50;;;;;;5056741;28;20427;-76
2022/09/22 13:03:00;;;;;;;0.45;0.30;;;21.80;21.20;;;;;;5074668;28;20032;-76
2022/09/22 13:05:25;;;;;;;1.00;0.50;;;21.80;20.70;;;;;;5074817;28;20071;-75
2022/09/22 13:07:53;;;;;;;1.05;0.47;;;22.10;20.10;;;;;;5074733;28;20028;-76
2022/09/22 13:10:21;;;;;;;1.13;0.40;;;22.30;20.10;;;;;;5074626;28;20021;-75
2022/09/22 13:13:04;;;;;;;0.98;0.60;;;22.60;20.50;;;;;;5074574;28;20123;-75
2022/09/22 13:15:50;;;;;;;0.63;0.45;;;22.40;20.30;;;;;;5056616;28;20044;-75
2022/09/22 13:18:29;;;;;;;2.33;0.73;;;22.50;19.70;;;;;;5024221;28;20492;-75
2022/09/22 13:20:56;;;;;;;1.45;0.43;;;22.90;20.10;;;;;;5074603;28;20353;-75
2022/09/22 13:23:22;;;;;;;0.95;0.45;;;23.10;20.00;;;;;;5056720;28;20035;-77
2022/09/22 13:25:49;;;;;;;1.38;0.40;;;23.20;19.50;;;;;;5074595;28;20028;-76
2022/09/22 13:28:20;;;;;;;3.50;0.57;;;23.30;19.40;;;;;;5074903;28;20073;-77
2022/09/22 13:30:57;;;;;;;2.33;0.47;;;23.60;19.70;;;;;;5075531;28;20017;-77
2022/09/22 13:33:25;;;;;;;0.77;0.60;;;23.80;18.60;;;;;;5074934;28;20345;-77
2022/09/22 13:36:04;;;;;;;1.35;0.60;;;23.60;18.60;;;;;;5075002;28;20100;-78